sensor_id;sensor_type;location;lat;lon;timestamp;pressure;altitude;pressure_sealevel;temperature;humidity
61324;BME280;47203;48.428;11.974;2023-04-21T00:01:25;96425.44;;;11.60;56.00
61324;BME280;47203;48.428;11.974;2023-04-21T00:03:30;96418.59;;;11.59;55.96
61324;BME280;47203;48.428;11.974;2023-04-21T00:05:39;96421.50;;;11.57;56.05
61324;BME280;47203;48.428;11.974;2023-04-21T00:07:44;96422.56;;;11.56;56.16
61324;BME280;47203;48.428;11.974;2023-04-21T00:09:51;96422.84;;;11.55;56.10
61324;BME280;47203;48.428;11.974;2023-04-21T00:11:56;96422.06;;;11.54;56.13
61324;BME280;47203;48.428;11.974;2023-04-21T00:14:01;96435.25;;;11.54;56.39
61324;BME280;47203;48.428;11.974;2023-04-21T00:16:06;96432.06;;;11.52;56.24
61324;BME280;47203;48.428;11.974;2023-04-21T00:18:11;96428.66;;;11.51;56.33
61324;BME280;47203;48.428;11.974;2023-04-21T00:20:17;96429.72;;;11.50;56.48
61324;BME280;47203;48.428;11.974;2023-04-21T00:22:21;96419.97;;;11.51;56.31
61324;BME280;47203;48.428;11.974;2023-04-21T00:24:26;96421.53;;;11.52;56.46
61324;BME280;47203;48.428;11.974;2023-04-21T00:26:34;96424.69;;;11.54;56.38
61324;BME280;47203;48.428;11.974;2023-04-21T00:28:38;96422.56;;;11.56;56.31
61324;BME280;47203;48.428;11.974;2023-04-21T00:30:43;96414.66;;;11.56;56.45
61324;BME280;47203;48.428;11.974;2023-04-21T00:32:48;96423.38;;;11.57;56.35
61324;BME280;47203;48.428;11.974;2023-04-21T00:34:53;96419.66;;;11.58;56.51
61324;BME280;47203;48.428;11.974;2023-04-21T00:36:58;96416.72;;;11.59;56.34
61324;BME280;47203;48.428;11.974;2023-04-21T00:39:03;96410.13;;;11.62;56.50
61324;BME280;47203;48.428;11.974;2023-04-21T00:41:09;96409.56;;;11.65;56.37
61324;BME280;47203;48.428;11.974;2023-04-21T00:43:17;96409.56;;;11.65;56.57
61324;BME280;47203;48.428;11.974;2023-04-21T00:45:21;96407.44;;;11.67;56.33
61324;BME280;47203;48.428;11.974;2023-04-21T00:47:26;96406.38;;;11.68;56.41
61324;BME280;47203;48.428;11.974;2023-04-21T00:49:32;96411.38;;;11.69;56.38
61324;BME280;47203;48.428;11.974;2023-04-21T00:51:36;96407.38;;;11.72;56.64
61324;BME280;47203;48.428;11.974;2023-04-21T00:53:41;96398.69;;;11.72;56.66
61324;BME280;47203;48.428;11.974;2023-04-21T00:55:46;96395.78;;;11.73;56.29
61324;BME280;47203;48.428;11.974;2023-04-21T00:57:52;96396.28;;;11.75;56.40
61324;BME280;47203;48.428;11.974;2023-04-21T01:00:05;96396.28;;;11.75;56.37
61324;BME280;47203;48.428;11.974;2023-04-21T01:02:13;96391.81;;;11.76;56.72
61324;BME280;47203;48.428;11.974;2023-04-21T01:04:18;96388.38;;;11.75;56.37
61324;BME280;47203;48.428;11.974;2023-04-21T01:06:23;96398.13;;;11.75;56.21
61324;BME280;47203;48.428;11.974;2023-04-21T01:08:30;96390.22;;;11.75;56.34
61324;BME280;47203;48.428;11.974;2023-04-21T01:10:36;96392.09;;;11.74;56.52
61324;BME280;47203;48.428;11.974;2023-04-21T01:12:41;96394.72;;;11.74;56.53
61324;BME280;47203;48.428;11.974;2023-04-21T01:14:47;96396.06;;;11.72;56.57
61324;BME280;47203;48.428;11.974;2023-04-21T01:16:54;96393.72;;;11.70;56.57
61324;BME280;47203;48.428;11.974;2023-04-21T01:19:00;96390.56;;;11.68;56.39
61324;BME280;47203;48.428;11.974;2023-04-21T01:21:06;96394.56;;;11.65;56.46
61324;BME280;47203;48.428;11.974;2023-04-21T01:23:14;96392.47;;;11.62;56.47
61324;BME280;47203;48.428;11.974;2023-04-21T01:25:21;96390.09;;;11.61;56.67
61324;BME280;47203;48.428;11.974;2023-04-21T01:27:30;96398.81;;;11.61;56.47
61324;BME280;47203;48.428;11.974;2023-04-21T01:29:34;96396.94;;;11.62;56.41
61324;BME280;47203;48.428;11.974;2023-04-21T01:31:41;96390.09;;;11.61;56.62
61324;BME280;47203;48.428;11.974;2023-04-21T01:33:48;96397.22;;;11.60;56.47
61324;BME280;47203;48.428;11.974;2023-04-21T01:35:53;96398.00;;;11.61;56.40
61324;BME280;47203;48.428;11.974;2023-04-21T01:37:59;96390.09;;;11.61;56.46
61324;BME280;47203;48.428;11.974;2023-04-21T01:40:08;96388.53;;;11.60;56.53
61324;BME280;47203;48.428;11.974;2023-04-21T01:42:13;96390.38;;;11.59;56.42
61324;BME280;47203;48.428;11.974;2023-04-21T01:44:17;96391.19;;;11.60;56.53
61324;BME280;47203;48.428;11.974;2023-04-21T01:46:22;96386.69;;;11.60;56.50
61324;BME280;47203;48.428;11.974;2023-04-21T01:48:27;96376.13;;;11.60;56.62
61324;BME280;47203;48.428;11.974;2023-04-21T01:50:33;96381.41;;;11.60;56.26
61324;BME280;47203;48.428;11.974;2023-04-21T01:52:37;96388.53;;;11.60;56.61
61324;BME280;47203;48.428;11.974;2023-04-21T01:54:42;96381.41;;;11.60;56.47
61324;BME280;47203;48.428;11.974;2023-04-21T01:56:50;96386.97;;;11.59;56.24
61324;BME280;47203;48.428;11.974;2023-04-21T01:58:55;96391.44;;;11.58;56.54
61324;BME280;47203;48.428;11.974;2023-04-21T02:01:00;96394.09;;;11.58;56.36
61324;BME280;47203;48.428;11.974;2023-04-21T02:03:05;96389.09;;;11.57;56.42
61324;BME280;47203;48.428;11.974;2023-04-21T02:05:11;96396.75;;;11.53;56.28
61324;BME280;47203;48.428;11.974;2023-04-21T02:07:16;96393.91;;;11.49;56.35
61324;BME280;47203;48.428;11.974;2023-04-21T02:09:21;96399.72;;;11.46;56.17
61324;BME280;47203;48.428;11.974;2023-04-21T02:11:27;96396.56;;;11.44;56.36
61324;BME280;47203;48.428;11.974;2023-04-21T02:13:35;96409.53;;;11.41;56.34
61324;BME280;47203;48.428;11.974;2023-04-21T02:15:40;96411.63;;;11.39;56.33
61324;BME280;47203;48.428;11.974;2023-04-21T02:17:46;96413.78;;;11.37;56.55
61324;BME280;47203;48.428;11.974;2023-04-21T02:19:51;96416.97;;;11.33;56.31
61324;BME280;47203;48.428;11.974;2023-04-21T02:21:56;96409.34;;;11.32;56.64
61324;BME280;47203;48.428;11.974;2023-04-21T02:24:01;96411.16;;;11.31;56.29
61324;BME280;47203;48.428;11.974;2023-04-21T02:26:06;96414.59;;;11.32;56.47
61324;BME280;47203;48.428;11.974;2023-04-21T02:28:11;96402.50;;;11.31;56.63
61324;BME280;47203;48.428;11.974;2023-04-21T02:30:19;96410.38;;;11.31;56.64
61324;BME280;47203;48.428;11.974;2023-04-21T02:32:23;96411.16;;;11.31;56.57
61324;BME280;47203;48.428;11.974;2023-04-21T02:34:28;96409.06;;;11.33;56.34
61324;BME280;47203;48.428;11.974;2023-04-21T02:36:34;96401.66;;;11.35;56.73
61324;BME280;47203;48.428;11.974;2023-04-21T02:38:38;96403.22;;;11.37;56.69
61324;BME280;47203;48.428;11.974;2023-04-21T02:40:44;96399.53;;;11.38;56.39
61324;BME280;47203;48.428;11.974;2023-04-21T02:42:49;96395.81;;;11.39;56.29
61324;BME280;47203;48.428;11.974;2023-04-21T02:44:53;96392.91;;;11.40;56.38
61324;BME280;47203;48.428;11.974;2023-04-21T02:47:01;96399.00;;;11.41;56.58
61324;BME280;47203;48.428;11.974;2023-04-21T02:49:06;96393.72;;;11.41;56.19
61324;BME280;47203;48.428;11.974;2023-04-21T02:51:11;96395.28;;;11.42;56.15
61324;BME280;47203;48.428;11.974;2023-04-21T02:53:16;96391.84;;;11.41;56.17
61324;BME280;47203;48.428;11.974;2023-04-21T02:55:21;96389.72;;;11.43;56.22
61324;BME280;47203;48.428;11.974;2023-04-21T02:57:26;96385.53;;;11.42;56.10
61324;BME280;47203;48.428;11.974;2023-04-21T02:59:31;96380.25;;;11.42;56.35
61324;BME280;47203;48.428;11.974;2023-04-21T03:01:36;96381.03;;;11.43;56.16
61324;BME280;47203;48.428;11.974;2023-04-21T03:03:44;96379.75;;;11.40;56.36
61324;BME280;47203;48.428;11.974;2023-04-21T03:05:55;96381.88;;;11.38;55.99
61324;BME280;47203;48.428;11.974;2023-04-21T03:08:00;96383.75;;;11.38;55.83
61324;BME280;47203;48.428;11.974;2023-04-21T03:10:05;96375.31;;;11.35;55.79
61324;BME280;47203;48.428;11.974;2023-04-21T03:12:10;96377.16;;;11.35;55.93
61324;BME280;47203;48.428;11.974;2023-04-21T03:14:15;96387.97;;;11.33;56.02
61324;BME280;47203;48.428;11.974;2023-04-21T03:16:20;96384.03;;;11.31;55.97
61324;BME280;47203;48.428;11.974;2023-04-21T03:18:25;96379.34;;;11.28;55.92
61324;BME280;47203;48.428;11.974;2023-04-21T03:20:32;96379.88;;;11.25;55.70
61324;BME280;47203;48.428;11.974;2023-04-21T03:22:37;96383.84;;;11.22;56.00
61324;BME280;47203;48.428;11.974;2023-04-21T03:24:42;96383.34;;;11.20;55.97
61324;BME280;47203;48.428;11.974;2023-04-21T03:26:47;96384.69;;;11.17;55.62
61324;BME280;47203;48.428;11.974;2023-04-21T03:28:52;96388.38;;;11.16;55.69
61324;BME280;47203;48.428;11.974;2023-04-21T03:30:57;96378.88;;;11.15;55.77
61324;BME280;47203;48.428;11.974;2023-04-21T03:33:02;96386.00;;;11.15;55.58
61324;BME280;47203;48.428;11.974;2023-04-21T03:35:07;96383.66;;;11.13;55.83
61324;BME280;47203;48.428;11.974;2023-04-21T03:37:14;96383.16;;;11.11;55.77
61324;BME280;47203;48.428;11.974;2023-04-21T03:39:19;96391.06;;;11.11;55.89
61324;BME280;47203;48.428;11.974;2023-04-21T03:41:26;96388.44;;;11.11;55.75
61324;BME280;47203;48.428;11.974;2023-04-21T03:43:30;96387.34;;;11.12;55.70
61324;BME280;47203;48.428;11.974;2023-04-21T03:45:37;96391.84;;;11.12;55.98
61324;BME280;47203;48.428;11.974;2023-04-21T03:47:41;96392.09;;;11.10;55.67
61324;BME280;47203;48.428;11.974;2023-04-21T03:49:46;96391.84;;;11.12;55.73
61324;BME280;47203;48.428;11.974;2023-04-21T03:51:51;96394.19;;;11.13;55.82
61324;BME280;47203;48.428;11.974;2023-04-21T03:53:59;96401.31;;;11.13;55.40
61324;BME280;47203;48.428;11.974;2023-04-21T03:56:04;96396.06;;;11.13;55.77
61324;BME280;47203;48.428;11.974;2023-04-21T03:58:09;96399.72;;;11.12;55.47
61324;BME280;47203;48.428;11.974;2023-04-21T04:00:15;96390.25;;;11.11;55.46
61324;BME280;47203;48.428;11.974;2023-04-21T04:02:20;96393.97;;;11.10;55.72
61324;BME280;47203;48.428;11.974;2023-04-21T04:04:25;96393.16;;;11.09;55.49
61324;BME280;47203;48.428;11.974;2023-04-21T04:06:31;96402.94;;;11.09;55.76
61324;BME280;47203;48.428;11.974;2023-04-21T04:08:36;96396.06;;;11.08;55.59
61324;BME280;47203;48.428;11.974;2023-04-21T04:10:43;96398.72;;;11.08;55.43
61324;BME280;47203;48.428;11.974;2023-04-21T04:12:48;96396.34;;;11.06;55.42
61324;BME280;47203;48.428;11.974;2023-04-21T04:14:53;96398.75;;;11.03;55.59
61324;BME280;47203;48.428;11.974;2023-04-21T04:16:58;96395.59;;;11.00;55.27
61324;BME280;47203;48.428;11.974;2023-04-21T04:19:03;96389.56;;;11.00;55.75
61324;BME280;47203;48.428;11.974;2023-04-21T04:21:08;96394.81;;;11.00;55.48
61324;BME280;47203;48.428;11.974;2023-04-21T04:23:12;96400.09;;;11.00;55.72
61324;BME280;47203;48.428;11.974;2023-04-21T04:25:17;96404.81;;;10.98;55.55
61324;BME280;47203;48.428;11.974;2023-04-21T04:27:24;96401.69;;;10.96;55.41
61324;BME280;47203;48.428;11.974;2023-04-21T04:29:30;96399.34;;;10.94;55.31
61324;BME280;47203;48.428;11.974;2023-04-21T04:31:35;96398.84;;;10.92;55.41
61324;BME280;47203;48.428;11.974;2023-04-21T04:33:40;96396.47;;;10.91;55.45
61324;BME280;47203;48.428;11.974;2023-04-21T04:35:46;96387.00;;;10.90;55.54
61324;BME280;47203;48.428;11.974;2023-04-21T04:37:51;96394.09;;;10.89;55.52
61324;BME280;47203;48.428;11.974;2023-04-21T04:39:57;96389.09;;;10.88;55.43
61324;BME280;47203;48.428;11.974;2023-04-21T04:42:05;96390.19;;;10.87;55.36
61324;BME280;47203;48.428;11.974;2023-04-21T04:44:12;96385.47;;;10.83;55.54
61324;BME280;47203;48.428;11.974;2023-04-21T04:46:19;96385.75;;;10.82;55.61
61324;BME280;47203;48.428;11.974;2023-04-21T04:48:25;96385.19;;;10.80;55.30
61324;BME280;47203;48.428;11.974;2023-04-21T04:50:30;96382.84;;;10.78;55.66
61324;BME280;47203;48.428;11.974;2023-04-21T04:52:35;96381.25;;;10.77;55.50
61324;BME280;47203;48.428;11.974;2023-04-21T04:54:40;96376.28;;;10.76;55.44
61324;BME280;47203;48.428;11.974;2023-04-21T04:56:45;96384.16;;;10.76;55.50
61324;BME280;47203;48.428;11.974;2023-04-21T04:58:49;96381.31;;;10.72;55.66
61324;BME280;47203;48.428;11.974;2023-04-21T05:00:57;96382.38;;;10.71;55.90
61324;BME280;47203;48.428;11.974;2023-04-21T05:03:02;96371.84;;;10.71;55.49
61324;BME280;47203;48.428;11.974;2023-04-21T05:05:07;96369.97;;;10.72;55.92
61324;BME280;47203;48.428;11.974;2023-04-21T05:07:12;96376.06;;;10.72;55.72
61324;BME280;47203;48.428;11.974;2023-04-21T05:09:17;96378.13;;;10.75;55.99
61324;BME280;47203;48.428;11.974;2023-04-21T05:11:22;96389.44;;;10.76;56.04
61324;BME280;47203;48.428;11.974;2023-04-21T05:13:27;96392.88;;;10.76;55.80
61324;BME280;47203;48.428;11.974;2023-04-21T05:15:32;96392.88;;;10.76;56.08
61324;BME280;47203;48.428;11.974;2023-04-21T05:17:39;96405.75;;;10.78;55.79
61324;BME280;47203;48.428;11.974;2023-04-21T05:19:44;96412.06;;;10.77;56.18
61324;BME280;47203;48.428;11.974;2023-04-21T05:21:49;96415.75;;;10.76;56.25
61324;BME280;47203;48.428;11.974;2023-04-21T05:23:55;96411.03;;;10.73;55.98
61324;BME280;47203;48.428;11.974;2023-04-21T05:26:01;96413.16;;;10.71;56.00
61324;BME280;47203;48.428;11.974;2023-04-21T05:28:06;96417.63;;;10.70;56.08
61324;BME280;47203;48.428;11.974;2023-04-21T05:30:11;96422.66;;;10.67;56.54
61324;BME280;47203;48.428;11.974;2023-04-21T05:32:16;96419.53;;;10.64;56.25
61324;BME280;47203;48.428;11.974;2023-04-21T05:34:24;96416.38;;;10.62;56.68
61324;BME280;47203;48.428;11.974;2023-04-21T05:36:28;96419.28;;;10.61;56.79
61324;BME280;47203;48.428;11.974;2023-04-21T05:38:34;96415.59;;;10.62;56.71
61324;BME280;47203;48.428;11.974;2023-04-21T05:40:38;96415.06;;;10.60;56.71
61324;BME280;47203;48.428;11.974;2023-04-21T05:42:43;96426.38;;;10.60;56.93
61324;BME280;47203;48.428;11.974;2023-04-21T05:44:48;96422.94;;;10.60;57.12
61324;BME280;47203;48.428;11.974;2023-04-21T05:46:53;96422.69;;;10.61;57.09
61324;BME280;47203;48.428;11.974;2023-04-21T05:48:58;96416.09;;;10.64;57.20
61324;BME280;47203;48.428;11.974;2023-04-21T05:51:10;96426.06;;;10.67;57.57
61324;BME280;47203;48.428;11.974;2023-04-21T05:53:16;96418.44;;;10.71;57.47
61324;BME280;47203;48.428;11.974;2023-04-21T05:55:21;96423.16;;;10.74;57.30
61324;BME280;47203;48.428;11.974;2023-04-21T05:57:26;96414.97;;;10.75;57.73
61324;BME280;47203;48.428;11.974;2023-04-21T05:59:30;96412.84;;;10.77;57.31
61324;BME280;47203;48.428;11.974;2023-04-21T06:01:35;96419.44;;;10.80;57.69
61324;BME280;47203;48.428;11.974;2023-04-21T06:03:40;96418.38;;;10.81;57.50
61324;BME280;47203;48.428;11.974;2023-04-21T06:05:45;96417.56;;;10.86;57.46
61324;BME280;47203;48.428;11.974;2023-04-21T06:07:53;96419.13;;;10.87;57.60
61324;BME280;47203;48.428;11.974;2023-04-21T06:09:58;96419.38;;;10.90;57.73
61324;BME280;47203;48.428;11.974;2023-04-21T06:12:03;96421.44;;;10.93;57.64
61324;BME280;47203;48.428;11.974;2023-04-21T06:14:08;96416.72;;;10.95;57.62
61324;BME280;47203;48.428;11.974;2023-04-21T06:16:12;96424.84;;;10.99;57.66
61324;BME280;47203;48.428;11.974;2023-04-21T06:18:17;96414.03;;;11.00;57.53
61324;BME280;47203;48.428;11.974;2023-04-21T06:20:22;96416.13;;;11.04;57.68
61324;BME280;47203;48.428;11.974;2023-04-21T06:22:28;96411.38;;;11.06;58.06
61324;BME280;47203;48.428;11.974;2023-04-21T06:24:36;96412.69;;;11.08;58.12
61324;BME280;47203;48.428;11.974;2023-04-21T06:26:41;96411.84;;;11.13;57.97
61324;BME280;47203;48.428;11.974;2023-04-21T06:28:46;96407.63;;;11.17;57.93
61324;BME280;47203;48.428;11.974;2023-04-21T06:30:50;96406.25;;;11.20;57.98
61324;BME280;47203;48.428;11.974;2023-04-21T06:32:55;96409.13;;;11.23;58.07
61324;BME280;47203;48.428;11.974;2023-04-21T06:35:00;96413.84;;;11.26;58.18
61324;BME280;47203;48.428;11.974;2023-04-21T06:37:05;96412.25;;;11.30;58.00
61324;BME280;47203;48.428;11.974;2023-04-21T06:39:10;96415.09;;;11.34;58.17
61324;BME280;47203;48.428;11.974;2023-04-21T06:41:17;96410.09;;;11.38;58.31
61324;BME280;47203;48.428;11.974;2023-04-21T06:43:25;96410.81;;;11.43;58.06
61324;BME280;47203;48.428;11.974;2023-04-21T06:45:30;96410.78;;;11.48;58.50
61324;BME280;47203;48.428;11.974;2023-04-21T06:47:35;96407.31;;;11.53;58.12
61324;BME280;47203;48.428;11.974;2023-04-21T06:49:39;96410.69;;;11.59;58.20
61324;BME280;47203;48.428;11.974;2023-04-21T06:51:44;96408.00;;;11.64;58.37
61324;BME280;47203;48.428;11.974;2023-04-21T06:53:49;96410.59;;;11.69;58.42
61324;BME280;47203;48.428;11.974;2023-04-21T06:55:54;96409.75;;;11.74;58.34
61324;BME280;47203;48.428;11.974;2023-04-21T06:58:01;96396.81;;;11.77;58.68
61324;BME280;47203;48.428;11.974;2023-04-21T07:00:08;96408.88;;;11.83;58.65
61324;BME280;47203;48.428;11.974;2023-04-21T07:02:13;96415.94;;;11.88;58.89
61324;BME280;47203;48.428;11.974;2023-04-21T07:04:18;96415.09;;;11.93;58.72
61324;BME280;47203;48.428;11.974;2023-04-21T07:06:23;96420.06;;;11.99;58.62
61324;BME280;47203;48.428;11.974;2023-04-21T07:08:27;96414.72;;;12.04;58.88
61324;BME280;47203;48.428;11.974;2023-04-21T07:10:32;96417.03;;;12.11;59.13
61324;BME280;47203;48.428;11.974;2023-04-21T07:12:37;96424.91;;;12.16;59.09
61324;BME280;47203;48.428;11.974;2023-04-21T07:14:44;96418.78;;;12.21;58.88
61324;BME280;47203;48.428;11.974;2023-04-21T07:16:49;96422.16;;;12.27;58.58
61324;BME280;47203;48.428;11.974;2023-04-21T07:18:55;96420.22;;;12.32;58.80
61324;BME280;47203;48.428;11.974;2023-04-21T07:21:00;96425.16;;;12.39;58.78
61324;BME280;47203;48.428;11.974;2023-04-21T07:23:05;96418.75;;;12.45;58.79
61324;BME280;47203;48.428;11.974;2023-04-21T07:25:10;96416.84;;;12.51;59.18
61324;BME280;47203;48.428;11.974;2023-04-21T07:27:15;96419.16;;;12.57;58.87
61324;BME280;47203;48.428;11.974;2023-04-21T07:29:20;96419.88;;;12.63;58.99
61324;BME280;47203;48.428;11.974;2023-04-21T07:31:28;96429.28;;;12.69;59.19
61324;BME280;47203;48.428;11.974;2023-04-21T07:33:34;96417.56;;;12.75;59.23
61324;BME280;47203;48.428;11.974;2023-04-21T07:35:41;96420.94;;;12.81;59.15
61324;BME280;47203;48.428;11.974;2023-04-21T07:37:46;96422.94;;;12.89;59.13
61324;BME280;47203;48.428;11.974;2023-04-21T07:39:51;96430.50;;;12.96;59.09
61324;BME280;47203;48.428;11.974;2023-04-21T07:41:55;96419.59;;;13.03;59.22
61324;BME280;47203;48.428;11.974;2023-04-21T07:44:00;96424.00;;;13.07;58.97
61324;BME280;47203;48.428;11.974;2023-04-21T07:46:05;96426.84;;;13.11;58.94
61324;BME280;47203;48.428;11.974;2023-04-21T07:48:13;96428.94;;;13.14;58.76
61324;BME280;47203;48.428;11.974;2023-04-21T07:50:18;96428.34;;;13.17;58.81
61324;BME280;47203;48.428;11.974;2023-04-21T07:52:23;96427.78;;;13.20;58.49
61324;BME280;47203;48.428;11.974;2023-04-21T07:54:27;96420.84;;;13.24;58.58
61324;BME280;47203;48.428;11.974;2023-04-21T07:56:33;96426.34;;;13.28;58.57
61324;BME280;47203;48.428;11.974;2023-04-21T07:58:37;96415.97;;;13.32;58.54
61324;BME280;47203;48.428;11.974;2023-04-21T08:00:42;96423.84;;;13.37;58.68
61324;BME280;47203;48.428;11.974;2023-04-21T08:02:47;96422.97;;;13.41;58.39
61324;BME280;47203;48.428;11.974;2023-04-21T08:04:55;96425.03;;;13.44;58.40
61324;BME280;47203;48.428;11.974;2023-04-21T08:07:00;96420.75;;;13.49;58.38
61324;BME280;47203;48.428;11.974;2023-04-21T08:09:05;96423.03;;;13.55;58.40
61324;BME280;47203;48.428;11.974;2023-04-21T08:11:10;96422.94;;;13.60;58.59
61324;BME280;47203;48.428;11.974;2023-04-21T08:13:15;96428.13;;;13.66;58.17
61324;BME280;47203;48.428;11.974;2023-04-21T08:15:21;96410.63;;;13.70;57.88
61324;BME280;47203;48.428;11.974;2023-04-21T08:17:27;96414.22;;;13.74;58.27
61324;BME280;47203;48.428;11.974;2023-04-21T08:19:31;96411.50;;;13.79;58.29
61324;BME280;47203;48.428;11.974;2023-04-21T08:21:39;96408.50;;;13.86;58.22
61324;BME280;47203;48.428;11.974;2023-04-21T08:23:43;96410.72;;;13.92;58.55
61324;BME280;47203;48.428;11.974;2023-04-21T08:25:48;96406.63;;;14.00;58.37
61324;BME280;47203;48.428;11.974;2023-04-21T08:27:53;96409.38;;;14.09;58.50
61324;BME280;47203;48.428;11.974;2023-04-21T08:29:58;96408.69;;;14.17;58.70
61324;BME280;47203;48.428;11.974;2023-04-21T08:32:03;96409.84;;;14.25;58.39
61324;BME280;47203;48.428;11.974;2023-04-21T08:34:08;96399.66;;;14.32;58.49
61324;BME280;47203;48.428;11.974;2023-04-21T08:36:13;96402.69;;;14.39;58.63
61324;BME280;47203;48.428;11.974;2023-04-21T08:38:32;96391.41;;;14.47;58.47
61324;BME280;47203;48.428;11.974;2023-04-21T08:40:38;96401.00;;;14.57;58.42
61324;BME280;47203;48.428;11.974;2023-04-21T08:42:43;96398.47;;;14.66;58.50
61324;BME280;47203;48.428;11.974;2023-04-21T08:44:48;96399.31;;;14.75;58.69
61324;BME280;47203;48.428;11.974;2023-04-21T08:46:55;96402.81;;;14.84;58.63
61324;BME280;47203;48.428;11.974;2023-04-21T08:49:00;96395.75;;;14.94;58.38
61324;BME280;47203;48.428;11.974;2023-04-21T08:51:06;96400.00;;;15.04;58.49
61324;BME280;47203;48.428;11.974;2023-04-21T08:53:13;96406.97;;;15.13;58.19
61324;BME280;47203;48.428;11.974;2023-04-21T08:55:25;96391.88;;;15.23;58.15
61324;BME280;47203;48.428;11.974;2023-04-21T08:57:30;96401.47;;;15.32;58.24
61324;BME280;47203;48.428;11.974;2023-04-21T08:59:35;96394.84;;;15.44;58.15
61324;BME280;47203;48.428;11.974;2023-04-21T09:02:07;96395.06;;;15.56;57.45
61324;BME280;47203;48.428;11.974;2023-04-21T09:04:16;96397.09;;;15.59;58.75
61324;BME280;47203;48.428;11.974;2023-04-21T09:06:21;96398.09;;;15.72;58.54
61324;BME280;47203;48.428;11.974;2023-04-21T09:08:26;96399.91;;;15.85;57.71
61324;BME280;47203;48.428;11.974;2023-04-21T09:10:41;96405.75;;;15.96;56.82
61324;BME280;47203;48.428;11.974;2023-04-21T09:12:49;96405.94;;;16.09;57.07
61324;BME280;47203;48.428;11.974;2023-04-21T09:14:55;96400.34;;;16.19;56.84
61324;BME280;47203;48.428;11.974;2023-04-21T09:17:02;96398.97;;;16.30;56.54
61324;BME280;47203;48.428;11.974;2023-04-21T09:19:13;96408.22;;;16.42;56.15
61324;BME280;47203;48.428;11.974;2023-04-21T09:21:18;96407.94;;;16.52;56.45
61324;BME280;47203;48.428;11.974;2023-04-21T09:23:23;96404.97;;;16.62;56.10
61324;BME280;47203;48.428;11.974;2023-04-21T09:25:30;96414.69;;;16.75;55.73
61324;BME280;47203;48.428;11.974;2023-04-21T09:27:40;96396.25;;;16.88;55.79
61324;BME280;47203;48.428;11.974;2023-04-21T09:29:45;96407.53;;;17.02;56.12
61324;BME280;47203;48.428;11.974;2023-04-21T09:31:51;96400.50;;;17.15;55.65
61324;BME280;47203;48.428;11.974;2023-04-21T09:33:57;96399.53;;;17.28;55.48
61324;BME280;47203;48.428;11.974;2023-04-21T09:36:04;96388.25;;;17.40;55.38
61324;BME280;47203;48.428;11.974;2023-04-21T09:38:11;96402.47;;;17.53;55.29
61324;BME280;47203;48.428;11.974;2023-04-21T09:40:17;96398.38;;;17.65;54.51
61324;BME280;47203;48.428;11.974;2023-04-21T09:42:27;96394.13;;;17.72;53.59
61324;BME280;47203;48.428;11.974;2023-04-21T09:44:35;96396.44;;;17.83;53.71
61324;BME280;47203;48.428;11.974;2023-04-21T09:47:00;96403.66;;;17.91;53.23
61324;BME280;47203;48.428;11.974;2023-04-21T09:49:05;96399.38;;;17.99;53.02
61324;BME280;47203;48.428;11.974;2023-04-21T09:51:10;96399.66;;;18.06;52.87
61324;BME280;47203;48.428;11.974;2023-04-21T09:53:37;96401.19;;;18.16;52.60
61324;BME280;47203;48.428;11.974;2023-04-21T09:55:46;96401.16;;;18.24;52.37
61324;BME280;47203;48.428;11.974;2023-04-21T09:57:56;96393.13;;;18.33;52.21
61324;BME280;47203;48.428;11.974;2023-04-21T10:00:06;96390.06;;;18.43;52.43
61324;BME280;47203;48.428;11.974;2023-04-21T10:02:13;96388.94;;;18.53;52.43
61324;BME280;47203;48.428;11.974;2023-04-21T10:04:18;96398.09;;;18.64;52.21
61324;BME280;47203;48.428;11.974;2023-04-21T10:06:25;96393.16;;;18.75;51.75
61324;BME280;47203;48.428;11.974;2023-04-21T10:08:30;96395.44;;;18.86;51.52
61324;BME280;47203;48.428;11.974;2023-04-21T10:10:35;96387.84;;;18.96;51.28
61324;BME280;47203;48.428;11.974;2023-04-21T10:12:40;96396.69;;;19.09;51.44
61324;BME280;47203;48.428;11.974;2023-04-21T10:14:45;96393.28;;;19.21;51.03
61324;BME280;47203;48.428;11.974;2023-04-21T10:17:03;96387.22;;;19.33;50.26
61324;BME280;47203;48.428;11.974;2023-04-21T10:19:22;96381.91;;;19.45;49.78
61324;BME280;47203;48.428;11.974;2023-04-21T10:21:27;96377.72;;;19.57;50.87
61324;BME280;47203;48.428;11.974;2023-04-21T10:23:36;96383.75;;;19.66;50.47
61324;BME280;47203;48.428;11.974;2023-04-21T10:25:41;96379.53;;;19.77;50.90
61324;BME280;47203;48.428;11.974;2023-04-21T10:27:46;96366.88;;;19.86;50.90
61324;BME280;47203;48.428;11.974;2023-04-21T10:29:51;96367.88;;;19.94;50.45
61324;BME280;47203;48.428;11.974;2023-04-21T10:32:00;96359.00;;;20.02;50.04
61324;BME280;47203;48.428;11.974;2023-04-21T10:34:19;96366.13;;;20.11;50.08
61324;BME280;47203;48.428;11.974;2023-04-21T10:36:24;96364.44;;;20.18;49.46
61324;BME280;47203;48.428;11.974;2023-04-21T10:38:33;96357.75;;;20.25;49.38
61324;BME280;47203;48.428;11.974;2023-04-21T10:40:38;96358.41;;;20.34;49.85
61324;BME280;47203;48.428;11.974;2023-04-21T10:42:45;96356.41;;;20.43;49.76
61324;BME280;47203;48.428;11.974;2023-04-21T10:44:52;96355.13;;;20.53;49.37
61324;BME280;47203;48.428;11.974;2023-04-21T10:47:00;96362.25;;;20.61;49.26
61324;BME280;47203;48.428;11.974;2023-04-21T10:49:06;96355.69;;;20.71;48.85
61324;BME280;47203;48.428;11.974;2023-04-21T10:51:11;96356.25;;;20.77;47.93
61324;BME280;47203;48.428;11.974;2023-04-21T10:53:16;96356.69;;;20.79;47.71
61324;BME280;47203;48.428;11.974;2023-04-21T10:55:21;96353.31;;;20.82;47.56
61324;BME280;47203;48.428;11.974;2023-04-21T10:57:31;96356.44;;;20.84;47.38
61324;BME280;47203;48.428;11.974;2023-04-21T10:59:38;96356.53;;;20.87;47.74